createdAt,value
2019-03-26T00:01:09.478Z,52.50
2019-03-26T00:03:40.346Z,52.20
2019-03-26T00:06:11.131Z,52.10
2019-03-26T00:08:41.992Z,52.00
2019-03-26T00:11:12.804Z,52.10
2019-03-26T00:13:43.781Z,52.20
2019-03-26T00:16:14.770Z,52.30
2019-03-26T00:18:48.915Z,52.30
2019-03-26T00:21:20.062Z,52.10
2019-03-26T00:23:50.871Z,52.40
2019-03-26T00:26:21.708Z,52.40
2019-03-26T00:28:53.111Z,52.50
2019-03-26T00:31:24.331Z,52.60
2019-03-26T00:33:55.129Z,52.40
2019-03-26T00:36:25.625Z,52.50
2019-03-26T00:38:56.475Z,52.50
2019-03-26T00:41:27.280Z,52.10
2019-03-26T00:43:58.204Z,52.20
2019-03-26T00:46:29.049Z,52.40
2019-03-26T00:48:59.883Z,52.30
2019-03-26T00:51:31.414Z,52.30
2019-03-26T00:54:02.549Z,52.20
2019-03-26T00:56:33.369Z,52.10
2019-03-26T00:59:04.122Z,52.10
2019-03-26T01:01:35.265Z,52.10
2019-03-26T01:04:06.582Z,52.10
2019-03-26T01:06:37.704Z,52.20
2019-03-26T01:09:08.690Z,52.10
2019-03-26T01:11:39.428Z,52.10
2019-03-26T01:14:10.555Z,52.10
2019-03-26T01:16:41.402Z,52.00
2019-03-26T01:19:12.336Z,52.30
2019-03-26T01:21:43.205Z,52.40
2019-03-26T01:24:14.145Z,52.50
2019-03-26T01:26:46.340Z,52.60
2019-03-26T01:29:17.089Z,52.40
2019-03-26T01:31:47.966Z,52.20
2019-03-26T01:34:18.991Z,52.10
2019-03-26T01:36:50.497Z,52.20
2019-03-26T01:39:21.570Z,52.40
2019-03-26T01:41:53.595Z,52.60
2019-03-26T01:44:24.388Z,52.40
2019-03-26T01:46:56.121Z,52.40
2019-03-26T01:49:26.947Z,52.70
2019-03-26T01:51:58.232Z,52.90
2019-03-26T01:54:29.449Z,52.80
2019-03-26T01:57:00.271Z,52.70
2019-03-26T01:59:31.960Z,52.60
2019-03-26T02:02:02.695Z,52.70
2019-03-26T02:04:33.430Z,52.60
2019-03-26T02:07:04.301Z,52.70
2019-03-26T02:09:35.559Z,52.80
2019-03-26T02:12:06.437Z,52.90
2019-03-26T02:14:37.365Z,52.90
2019-03-26T02:17:08.146Z,52.80
2019-03-26T02:19:38.885Z,52.90
2019-03-26T02:22:09.725Z,52.80
2019-03-26T02:24:40.491Z,53.00
2019-03-26T02:27:12.104Z,52.90
2019-03-26T02:29:41.694Z,53.10
2019-03-26T02:32:12.764Z,53.00
2019-03-26T02:34:43.630Z,53.00
2019-03-26T02:37:14.131Z,53.00
2019-03-26T02:39:44.894Z,52.90
2019-03-26T02:42:16.106Z,53.40
2019-03-26T02:44:47.264Z,53.20
2019-03-26T02:47:18.268Z,52.80
2019-03-26T02:49:49.128Z,53.20
2019-03-26T02:52:19.906Z,53.20
2019-03-26T02:54:51.138Z,53.20
2019-03-26T02:57:22.028Z,53.00
2019-03-26T02:59:53.807Z,53.30
2019-03-26T03:02:23.308Z,53.10
2019-03-26T03:04:54.362Z,53.20
2019-03-26T03:07:25.234Z,53.10
2019-03-26T03:09:57.167Z,53.20
2019-03-26T03:12:29.936Z,53.40
2019-03-26T03:15:00.830Z,53.30
2019-03-26T03:17:31.775Z,53.50
2019-03-26T03:20:02.687Z,53.20
2019-03-26T03:22:34.241Z,53.20
2019-03-26T03:25:05.168Z,53.50
2019-03-26T03:27:36.034Z,53.90
2019-03-26T03:30:08.253Z,53.00
2019-03-26T03:32:39.611Z,52.80
2019-03-26T03:35:10.864Z,52.70
2019-03-26T03:37:41.740Z,53.00
2019-03-26T03:40:12.741Z,53.20
2019-03-26T03:42:43.716Z,53.20
2019-03-26T03:45:16.456Z,52.80
2019-03-26T03:47:47.788Z,52.80
2019-03-26T03:50:19.348Z,52.90
2019-03-26T03:52:51.181Z,52.90
2019-03-26T03:55:21.125Z,52.70
2019-03-26T03:57:55.951Z,53.10
2019-03-26T04:00:34.668Z,52.70
2019-03-26T04:03:06.610Z,53.00
2019-03-26T04:05:38.078Z,52.90
2019-03-26T04:08:09.241Z,52.80
2019-03-26T04:10:41.141Z,52.70
2019-03-26T04:13:10.654Z,52.70
2019-03-26T04:15:41.896Z,52.70
2019-03-26T04:18:12.703Z,52.80
2019-03-26T04:20:43.532Z,52.70
2019-03-26T04:23:14.450Z,52.80
2019-03-26T04:25:45.454Z,52.80
2019-03-26T04:28:16.370Z,52.70
2019-03-26T04:30:47.298Z,52.80
2019-03-26T04:33:18.232Z,53.00
2019-03-26T04:35:49.183Z,52.50
2019-03-26T04:38:20.005Z,52.50
2019-03-26T04:40:50.810Z,52.40
2019-03-26T04:43:22.045Z,52.50
2019-03-26T04:45:52.937Z,52.50
2019-03-26T04:48:23.782Z,52.70
2019-03-26T04:50:54.829Z,52.50
2019-03-26T04:53:25.619Z,52.50
2019-03-26T04:55:56.858Z,52.40
2019-03-26T04:58:28.493Z,52.50
2019-03-26T05:00:59.425Z,52.50
2019-03-26T05:03:30.308Z,52.30
2019-03-26T05:06:01.122Z,52.30
2019-03-26T05:08:32.423Z,52.50
2019-03-26T05:11:03.213Z,52.40
2019-03-26T05:13:35.199Z,52.20
2019-03-26T05:16:06.521Z,51.90
2019-03-26T05:18:37.368Z,51.90
2019-03-26T05:21:08.488Z,52.00
2019-03-26T05:23:39.630Z,52.30
2019-03-26T05:26:11.137Z,52.40
2019-03-26T05:28:42.516Z,52.10
2019-03-26T05:31:13.667Z,52.70
2019-03-26T05:33:45.817Z,52.10
2019-03-26T05:36:17.554Z,51.90
2019-03-26T05:38:48.336Z,52.60
2019-03-26T05:41:19.150Z,52.20
2019-03-26T05:43:50.347Z,52.10
2019-03-26T05:46:21.516Z,52.10
2019-03-26T05:48:52.291Z,52.20
2019-03-26T05:51:22.746Z,52.20
2019-03-26T05:53:53.648Z,52.30
2019-03-26T05:56:24.847Z,52.10
2019-03-26T05:58:55.998Z,52.10
2019-03-26T06:01:26.860Z,51.70
2019-03-26T06:03:58.144Z,51.80
2019-03-26T06:06:29.304Z,51.90
2019-03-26T06:09:00.153Z,52.00
2019-03-26T06:11:31.438Z,51.80
2019-03-26T06:14:02.718Z,52.10
2019-03-26T06:16:38.477Z,51.90
2019-03-26T06:19:07.311Z,51.60
2019-03-26T06:21:38.959Z,51.80
2019-03-26T06:24:11.078Z,51.60
2019-03-26T06:26:42.191Z,51.50
2019-03-26T06:29:14.344Z,52.30
2019-03-26T06:31:45.447Z,51.30
2019-03-26T06:34:16.338Z,51.20
2019-03-26T06:36:48.420Z,51.40
2019-03-26T06:39:19.293Z,51.40
2019-03-26T06:41:50.383Z,51.20
2019-03-26T06:44:21.979Z,51.10
2019-03-26T06:46:54.295Z,51.10
2019-03-26T06:52:16.469Z,51.60
2019-03-26T06:54:48.017Z,51.40
2019-03-26T06:57:19.180Z,51.40
2019-03-26T06:59:50.006Z,51.70
2019-03-26T07:02:20.925Z,51.60
2019-03-26T07:04:52.357Z,51.70
2019-03-26T07:07:31.526Z,51.70
2019-03-26T07:09:57.185Z,52.00
2019-03-26T07:12:28.491Z,51.70
2019-03-26T07:14:59.649Z,51.30
2019-03-26T07:17:30.753Z,51.20
2019-03-26T07:20:02.074Z,51.50
2019-03-26T07:22:33.388Z,51.40
2019-03-26T07:25:04.560Z,51.50
2019-03-26T07:27:35.895Z,51.30
2019-03-26T07:30:07.625Z,51.40
2019-03-26T07:32:38.994Z,51.90
2019-03-26T07:35:10.126Z,51.60
2019-03-26T07:37:45.593Z,51.50
2019-03-26T07:40:13.825Z,51.30
2019-03-26T07:42:45.093Z,51.70
2019-03-26T07:45:16.786Z,51.70
2019-03-26T07:47:47.685Z,51.40
2019-03-26T07:50:18.628Z,51.60
2019-03-26T07:52:49.460Z,51.90
2019-03-26T07:55:20.842Z,51.60
2019-03-26T07:57:51.656Z,51.40
2019-03-26T08:00:32.397Z,51.10
2019-03-26T08:03:03.360Z,51.00
2019-03-26T08:05:34.487Z,50.60
2019-03-26T08:08:05.984Z,50.70
2019-03-26T08:10:36.810Z,50.60
2019-03-26T08:13:07.785Z,50.60
2019-03-26T08:15:38.943Z,50.20
2019-03-26T08:18:10.099Z,50.40
2019-03-26T08:20:40.932Z,50.40
2019-03-26T08:23:12.147Z,50.40
2019-03-26T08:25:43.756Z,50.20
2019-03-26T08:28:14.984Z,49.90
2019-03-26T08:30:46.019Z,49.60
2019-03-26T08:33:17.226Z,49.60
2019-03-26T08:35:48.371Z,49.80
2019-03-26T08:38:19.243Z,50.00
2019-03-26T08:40:50.774Z,49.70
2019-03-26T08:43:21.901Z,50.10
2019-03-26T08:45:53.178Z,49.70
2019-03-26T08:48:24.574Z,49.40
2019-03-26T08:50:55.364Z,49.70
2019-03-26T08:53:26.226Z,49.60
2019-03-26T08:55:57.136Z,49.50
2019-03-26T08:58:28.001Z,49.70
2019-03-26T09:00:58.962Z,50.00
2019-03-26T09:03:30.465Z,49.50
2019-03-26T09:06:01.448Z,49.10
2019-03-26T09:11:14.694Z,49.70
2019-03-26T09:13:46.134Z,49.50
2019-03-26T09:16:17.108Z,49.50
2019-03-26T09:18:48.679Z,50.10
2019-03-26T09:21:19.459Z,49.30
2019-03-26T09:23:51.051Z,48.60
2019-03-26T09:26:21.957Z,48.40
2019-03-26T09:28:53.001Z,48.00
2019-03-26T09:31:24.507Z,48.30
2019-03-26T09:33:55.599Z,48.50
2019-03-26T09:36:26.421Z,48.20
2019-03-26T09:38:57.305Z,47.70
2019-03-26T09:41:28.571Z,47.90
2019-03-26T09:43:59.811Z,47.70
2019-03-26T09:46:30.655Z,47.50
2019-03-26T09:49:02.375Z,47.50
2019-03-26T09:51:33.628Z,48.30
2019-03-26T09:54:05.718Z,47.40
2019-03-26T09:56:37.022Z,47.50
2019-03-26T09:59:08.781Z,47.10
2019-03-26T10:01:40.415Z,47.40
2019-03-26T10:04:11.566Z,47.20
2019-03-26T10:06:43.052Z,47.40
2019-03-26T10:09:14.590Z,46.80
2019-03-26T10:11:46.766Z,46.50
2019-03-26T10:14:17.750Z,46.50
2019-03-26T10:16:48.919Z,45.90
2019-03-26T10:19:20.080Z,46.00
2019-03-26T10:21:51.364Z,45.70
2019-03-26T10:24:22.586Z,45.10
2019-03-26T10:26:53.834Z,45.60
2019-03-26T10:29:30.598Z,45.20
2019-03-26T10:31:57.750Z,44.10
2019-03-26T10:34:29.812Z,43.30
2019-03-26T10:37:01.349Z,43.30
2019-03-26T10:39:32.282Z,43.90
2019-03-26T10:42:03.246Z,43.40
2019-03-26T10:44:34.065Z,43.10
2019-03-26T10:47:05.212Z,43.10
2019-03-26T10:49:36.042Z,43.00
2019-03-26T10:52:07.343Z,43.00
2019-03-26T10:54:38.160Z,42.50
2019-03-26T10:57:09.092Z,43.00
2019-03-26T10:59:40.397Z,43.40
2019-03-26T11:02:11.171Z,43.40
2019-03-26T11:04:42.031Z,43.50
2019-03-26T11:07:13.148Z,42.70
2019-03-26T11:09:44.156Z,43.00
2019-03-26T11:12:15.069Z,42.40
2019-03-26T11:14:46.485Z,42.40
2019-03-26T11:17:17.813Z,42.00
2019-03-26T11:19:48.932Z,41.70
2019-03-26T11:22:20.093Z,41.30
2019-03-26T11:24:51.900Z,42.20
2019-03-26T11:27:22.994Z,40.80
2019-03-26T11:29:53.743Z,42.80
2019-03-26T11:32:24.855Z,41.90
2019-03-26T11:34:56.051Z,41.10
2019-03-26T11:37:26.815Z,40.70
2019-03-26T11:39:58.373Z,42.50
2019-03-26T11:42:29.147Z,42.30
2019-03-26T11:45:00.598Z,41.10
2019-03-26T11:47:32.187Z,41.10
2019-03-26T11:50:04.806Z,40.70
2019-03-26T11:52:36.567Z,41.40
2019-03-26T11:55:08.606Z,40.40
2019-03-26T11:57:39.903Z,40.40
2019-03-26T12:00:11.525Z,41.10
2019-03-26T12:02:42.964Z,41.60
2019-03-26T12:05:14.035Z,41.20
2019-03-26T12:07:46.530Z,41.20
2019-03-26T12:10:17.866Z,41.30
2019-03-26T12:12:49.073Z,42.50
2019-03-26T12:15:20.421Z,41.90
2019-03-26T12:17:52.189Z,41.30
2019-03-26T12:20:21.815Z,40.80
2019-03-26T12:22:52.894Z,40.50
2019-03-26T12:25:24.388Z,40.00
2019-03-26T12:27:55.651Z,40.00
2019-03-26T12:30:37.229Z,40.80
2019-03-26T12:33:10.195Z,40.60
2019-03-26T12:35:41.091Z,40.60
2019-03-26T12:38:21.726Z,40.00
2019-03-26T12:40:53.387Z,40.60
2019-03-26T12:43:24.602Z,40.50
2019-03-26T12:45:55.526Z,40.50
2019-03-26T12:48:27.672Z,41.00
2019-03-26T12:50:58.591Z,40.80
2019-03-26T12:53:29.740Z,41.00
2019-03-26T12:56:00.544Z,41.00
2019-03-26T12:58:36.057Z,41.00
2019-03-26T13:01:05.571Z,40.60
2019-03-26T13:03:36.490Z,40.50
2019-03-26T13:06:07.356Z,40.30
2019-03-26T13:08:39.683Z,39.90
2019-03-26T13:11:10.990Z,40.30
2019-03-26T13:13:42.219Z,40.60
2019-03-26T13:16:17.260Z,40.20
2019-03-26T13:18:48.940Z,40.00
2019-03-26T13:21:20.440Z,40.10
2019-03-26T13:23:52.275Z,40.10
2019-03-26T13:26:23.364Z,40.40
2019-03-26T13:28:54.835Z,40.40
2019-03-26T13:31:25.779Z,40.30
2019-03-26T13:33:56.617Z,40.40
2019-03-26T13:36:27.727Z,40.10
2019-03-26T13:38:58.588Z,39.80
2019-03-26T13:41:29.723Z,39.90
2019-03-26T13:44:01.382Z,39.90
2019-03-26T13:46:31.092Z,39.00
2019-03-26T13:49:02.667Z,38.80
2019-03-26T13:51:36.928Z,38.40
2019-03-26T13:54:06.667Z,38.30
2019-03-26T13:56:37.517Z,38.30
2019-03-26T13:59:08.471Z,37.70
2019-03-26T14:01:39.579Z,37.80
2019-03-26T14:04:13.041Z,38.10
2019-03-26T14:06:44.304Z,37.20
2019-03-26T14:09:15.430Z,37.10
2019-03-26T14:11:46.719Z,37.30
2019-03-26T14:14:18.054Z,37.60
2019-03-26T14:16:49.117Z,37.10
2019-03-26T14:19:20.212Z,37.00
2019-03-26T14:21:51.428Z,37.50
2019-03-26T14:24:22.788Z,37.70
2019-03-26T14:26:53.908Z,38.30
2019-03-26T14:29:25.989Z,38.20
2019-03-26T14:31:57.192Z,38.40
2019-03-26T14:34:28.653Z,38.50
2019-03-26T14:36:59.471Z,39.40
2019-03-26T14:39:30.717Z,38.50
2019-03-26T14:42:02.149Z,39.30
2019-03-26T14:44:33.053Z,38.30
2019-03-26T14:47:04.900Z,37.90
2019-03-26T14:49:34.758Z,38.40
2019-03-26T14:52:07.022Z,38.70
2019-03-26T14:54:38.137Z,39.10
2019-03-26T14:57:09.871Z,38.70
2019-03-26T14:59:39.437Z,38.40
2019-03-26T15:02:10.220Z,38.40
2019-03-26T15:04:41.113Z,38.80
2019-03-26T15:07:12.590Z,38.90
2019-03-26T15:09:43.561Z,38.50
2019-03-26T15:12:15.497Z,38.60
2019-03-26T15:14:46.536Z,38.70
2019-03-26T15:17:17.979Z,38.60
2019-03-26T15:19:49.587Z,38.50
2019-03-26T15:22:20.575Z,38.50
2019-03-26T15:24:52.682Z,38.60
2019-03-26T15:27:23.438Z,38.70
2019-03-26T15:29:54.963Z,38.70
2019-03-26T15:32:26.345Z,39.40
2019-03-26T15:34:58.836Z,38.90
2019-03-26T15:37:31.031Z,38.70
2019-03-26T15:40:02.879Z,39.10
2019-03-26T15:42:34.756Z,38.50
2019-03-26T15:45:04.794Z,38.30
2019-03-26T15:47:36.545Z,38.30
2019-03-26T15:50:06.509Z,38.40
2019-03-26T15:52:37.830Z,38.50
2019-03-26T15:55:09.304Z,38.30
2019-03-26T15:57:40.418Z,38.00
2019-03-26T16:00:12.461Z,38.10
2019-03-26T16:02:43.613Z,38.20
2019-03-26T16:05:16.835Z,38.30
2019-03-26T16:07:47.785Z,38.30
2019-03-26T16:10:19.033Z,38.40
2019-03-26T16:12:51.039Z,38.60
2019-03-26T16:15:22.554Z,39.10
2019-03-26T16:17:54.397Z,38.80
2019-03-26T16:20:26.271Z,38.80
2019-03-26T16:22:56.604Z,38.90
2019-03-26T16:25:28.046Z,39.10
2019-03-26T16:27:58.862Z,39.20
2019-03-26T16:30:30.743Z,39.10
2019-03-26T16:33:02.362Z,39.00
2019-03-26T16:35:33.499Z,39.20
2019-03-26T16:38:05.712Z,39.10
2019-03-26T16:40:37.152Z,39.30
2019-03-26T16:43:08.280Z,39.00
2019-03-26T16:45:40.651Z,39.20
2019-03-26T16:48:11.956Z,39.20
2019-03-26T16:50:43.511Z,39.30
2019-03-26T16:53:13.731Z,39.30
2019-03-26T16:55:45.307Z,39.50
2019-03-26T16:58:17.067Z,39.20
2019-03-26T17:00:46.652Z,39.50
2019-03-26T17:03:30.411Z,39.60
2019-03-26T17:05:50.645Z,39.70
2019-03-26T17:08:22.803Z,40.00
2019-03-26T17:10:54.663Z,40.00
2019-03-26T17:13:24.708Z,40.00
2019-03-26T17:15:55.832Z,40.30
2019-03-26T17:18:27.349Z,40.20
2019-03-26T17:20:58.699Z,40.20
2019-03-26T17:23:31.286Z,40.30
2019-03-26T17:26:02.491Z,40.60
2019-03-26T17:28:33.744Z,40.40
2019-03-26T17:31:06.189Z,40.10
2019-03-26T17:33:37.399Z,40.30
2019-03-26T17:36:09.140Z,40.20
2019-03-26T17:38:40.739Z,40.10
2019-03-26T17:41:12.058Z,40.20
2019-03-26T17:43:44.219Z,41.20
2019-03-26T17:46:16.318Z,40.30
2019-03-26T17:48:48.523Z,40.30
2019-03-26T17:51:19.880Z,40.40
2019-03-26T17:53:51.745Z,40.50
2019-03-26T17:56:23.331Z,40.40
2019-03-26T17:58:54.150Z,40.40
2019-03-26T18:01:25.567Z,40.30
2019-03-26T18:03:56.836Z,40.20
2019-03-26T18:06:28.592Z,40.30
2019-03-26T18:08:58.120Z,40.50
2019-03-26T18:11:29.586Z,40.50
2019-03-26T18:14:00.956Z,40.40
2019-03-26T18:16:32.783Z,40.40
2019-03-26T18:19:02.427Z,40.50
2019-03-26T18:21:34.948Z,40.70
2019-03-26T18:24:04.955Z,40.60
2019-03-26T18:26:36.105Z,40.80
2019-03-26T18:29:07.144Z,40.80
2019-03-26T18:31:37.960Z,40.90
2019-03-26T18:34:10.005Z,40.80
2019-03-26T18:36:41.042Z,41.00
2019-03-26T18:39:12.229Z,41.00
2019-03-26T18:41:43.897Z,41.00
2019-03-26T18:44:15.823Z,41.20
2019-03-26T18:46:45.832Z,41.40
2019-03-26T18:49:16.791Z,42.00
2019-03-26T18:51:48.283Z,41.60
2019-03-26T18:54:20.162Z,41.80
2019-03-26T18:56:50.961Z,41.40
2019-03-26T18:59:22.329Z,41.70
2019-03-26T19:01:53.657Z,41.70
2019-03-26T19:04:24.495Z,41.70
2019-03-26T19:06:55.661Z,41.60
2019-03-26T19:09:26.798Z,41.60
2019-03-26T19:11:58.766Z,41.70
2019-03-26T19:14:32.055Z,41.80
2019-03-26T19:17:04.019Z,41.80
2019-03-26T19:19:34.868Z,41.80
2019-03-26T19:22:06.475Z,41.90
2019-03-26T19:24:38.153Z,42.00
2019-03-26T19:27:09.638Z,42.00
2019-03-26T19:29:41.137Z,42.20
2019-03-26T19:32:12.759Z,42.00
2019-03-26T19:34:43.916Z,42.40
2019-03-26T19:37:15.315Z,42.30
2019-03-26T19:39:46.575Z,42.10
2019-03-26T19:42:18.141Z,42.20
2019-03-26T19:44:49.937Z,42.10
2019-03-26T19:47:21.500Z,42.10
2019-03-26T19:49:52.804Z,42.20
2019-03-26T19:52:23.613Z,42.40
2019-03-26T19:54:54.676Z,42.20
2019-03-26T19:57:26.228Z,42.40
2019-03-26T19:59:58.472Z,42.80
2019-03-26T20:02:31.850Z,42.40
2019-03-26T20:05:04.951Z,42.40
2019-03-26T20:07:36.458Z,42.40
2019-03-26T20:10:09.372Z,43.00
2019-03-26T20:12:40.525Z,42.50
2019-03-26T20:15:12.306Z,42.20
2019-03-26T20:17:43.654Z,42.40
2019-03-26T20:20:15.562Z,42.70
2019-03-26T20:22:47.925Z,42.40
2019-03-26T20:25:18.779Z,42.40
2019-03-26T20:27:50.002Z,42.40
2019-03-26T20:30:21.310Z,42.50
2019-03-26T20:32:53.059Z,42.70
2019-03-26T20:35:22.893Z,42.90
2019-03-26T20:37:54.609Z,43.20
2019-03-26T20:40:26.762Z,43.40
2019-03-26T20:42:57.639Z,42.80
2019-03-26T20:45:28.896Z,42.80
2019-03-26T20:48:01.498Z,42.80
2019-03-26T20:50:33.031Z,42.80
2019-03-26T20:53:04.505Z,42.90
2019-03-26T20:55:36.188Z,42.80
2019-03-26T20:58:07.160Z,42.90
2019-03-26T21:00:42.934Z,42.80
2019-03-26T21:03:13.990Z,42.70
2019-03-26T21:05:46.246Z,42.80
2019-03-26T21:08:17.388Z,42.80
2019-03-26T21:10:49.690Z,42.90
2019-03-26T21:13:23.403Z,42.80
2019-03-26T21:15:57.353Z,43.00
2019-03-26T21:18:46.364Z,43.00
2019-03-26T21:21:18.438Z,43.30
2019-03-26T21:23:51.420Z,43.30
2019-03-26T21:26:24.795Z,43.30
2019-03-26T21:28:56.201Z,43.20
2019-03-26T21:31:27.111Z,43.30
2019-03-26T21:33:58.246Z,43.50
2019-03-26T21:36:32.006Z,43.50
2019-03-26T21:39:09.377Z,43.70
2019-03-26T21:41:40.862Z,44.00
2019-03-26T21:44:11.789Z,43.90
2019-03-26T21:46:42.662Z,43.90
2019-03-26T21:49:14.278Z,43.80
2019-03-26T21:51:46.026Z,44.00
2019-03-26T21:54:17.336Z,44.30
2019-03-26T21:56:49.132Z,44.10
2019-03-26T21:59:20.260Z,44.30
2019-03-26T22:01:51.166Z,44.50
2019-03-26T22:04:21.987Z,44.60
2019-03-26T22:06:55.626Z,44.60
2019-03-26T22:09:27.128Z,44.60
2019-03-26T22:11:59.152Z,44.80
2019-03-26T22:14:29.982Z,44.80
2019-03-26T22:17:00.751Z,45.00
2019-03-26T22:19:31.580Z,44.90
2019-03-26T22:22:02.416Z,44.80
2019-03-26T22:24:33.634Z,44.90
2019-03-26T22:27:05.946Z,45.10
2019-03-26T22:29:36.730Z,45.10
2019-03-26T22:32:08.350Z,45.00
2019-03-26T22:34:39.143Z,45.20
2019-03-26T22:37:10.424Z,45.30
2019-03-26T22:39:41.613Z,45.40
2019-03-26T22:42:12.821Z,45.30
2019-03-26T22:44:44.236Z,45.50
2019-03-26T22:47:15.070Z,45.40
2019-03-26T22:49:45.871Z,45.60
2019-03-26T22:52:17.368Z,45.50
2019-03-26T22:54:48.834Z,45.60
2019-03-26T22:57:20.210Z,45.70
2019-03-26T22:59:51.271Z,45.70
2019-03-26T23:02:22.110Z,46.00
2019-03-26T23:04:52.965Z,45.70
2019-03-26T23:07:24.609Z,45.80
2019-03-26T23:09:54.845Z,45.60
2019-03-26T23:12:26.149Z,45.40
2019-03-26T23:14:57.215Z,45.70
2019-03-26T23:17:28.077Z,45.60
2019-03-26T23:19:59.007Z,45.40
2019-03-26T23:22:30.066Z,45.70
2019-03-26T23:25:00.873Z,45.50
2019-03-26T23:27:32.298Z,45.70
2019-03-26T23:30:03.958Z,45.80
2019-03-26T23:32:34.437Z,46.00
2019-03-26T23:35:05.828Z,45.40
2019-03-26T23:37:37.586Z,45.80
2019-03-26T23:40:07.581Z,45.70
2019-03-26T23:42:39.766Z,45.90
2019-03-26T23:45:10.972Z,45.90
2019-03-26T23:47:42.627Z,45.80
2019-03-26T23:50:13.631Z,45.70
2019-03-26T23:52:44.981Z,45.70
2019-03-26T23:55:16.040Z,45.60
2019-03-26T23:57:47.065Z,45.90
